Time;durP1;ratioP1;P1;durP2;ratioP2;P2;SDS_P1;SDS_P2;PMS_P1;PMS_P2;Temp;Humidity;BMP_temperature;BMP_pressure;BME280_temperature;BME280_humidity;BME280_pressure;Samples;Min_cycle;Max_cycle;Signal;HPM_P1;HPM_P2
2023/01/13 00:00:26;;;;;;;12.50;2.00;;;;;;;11.14;71.62;100391.44;5065709;28;20045;-62
2023/01/13 00:02:55;;;;;;;11.68;2.85;;;;;;;11.14;71.75;100408.41;5065683;28;20052;-63
2023/01/13 00:05:24;;;;;;;10.10;2.22;;;;;;;11.12;71.38;100409.69;5066277;28;20037;-63
2023/01/13 00:07:52;;;;;;;15.82;2.90;;;;;;;11.11;71.85;100410.75;5064123;28;20132;-63
2023/01/13 00:10:21;;;;;;;9.82;2.78;;;;;;;11.10;71.31;100401.84;5062401;28;20071;-62
2023/01/13 00:12:50;;;;;;;7.60;2.83;;;;;;;11.07;71.11;100400.44;5068192;28;20059;-63
2023/01/13 00:15:18;;;;;;;9.32;1.92;;;;;;;11.08;70.67;100409.34;5056812;28;20104;-63
2023/01/13 00:17:46;;;;;;;14.07;3.78;;;;;;;11.05;70.82;100410.63;5076791;28;20052;-63
2023/01/13 00:20:15;;;;;;;10.20;2.40;;;;;;;11.06;70.75;100408.75;5067860;28;20076;-63
2023/01/13 00:22:42;;;;;;;12.90;3.55;;;;;;;11.04;70.68;100408.19;5062456;28;20040;-62
2023/01/13 00:25:10;;;;;;;14.35;2.88;;;;;;;11.04;71.00;100397.41;5061999;28;20049;-62
2023/01/13 00:27:39;;;;;;;12.82;2.75;;;;;;;11.02;70.83;100386.09;5065177;28;20051;-63
2023/01/13 00:30:08;;;;;;;11.85;2.75;;;;;;;11.01;70.60;100384.44;5065638;28;20045;-62
2023/01/13 00:32:36;;;;;;;12.80;2.85;;;;;;;10.98;70.59;100379.53;5060802;28;20151;-63
2023/01/13 00:35:05;;;;;;;9.40;2.65;;;;;;;10.98;71.01;100379.53;5060780;28;20051;-62
2023/01/13 00:37:35;;;;;;;10.68;2.67;;;;;;;10.99;71.06;100373.09;5068078;28;20041;-63
2023/01/13 00:40:03;;;;;;;10.48;2.47;;;;;;;10.98;71.16;100369.59;5062147;28;20079;-62
2023/01/13 00:45:17;;;;;;;15.60;3.20;;;;;;;10.98;71.15;100356.16;5058113;28;20052;-62
2023/01/13 00:47:45;;;;;;;11.30;2.80;;;;;;;10.97;70.94;100346.47;5063372;28;20144;-62
2023/01/13 00:50:13;;;;;;;11.88;2.25;;;;;;;10.96;71.16;100344.81;5062373;28;20052;-63
2023/01/13 00:52:40;;;;;;;12.38;2.55;;;;;;;10.97;71.30;100342.94;5070108;28;20049;-63
2023/01/13 00:55:09;;;;;;;11.98;2.97;;;;;;;10.96;71.18;100350.19;5065248;28;20044;-63
2023/01/13 00:57:38;;;;;;;14.63;3.03;;;;;;;10.96;71.16;100347.50;5063580;28;20117;-63
2023/01/13 01:00:06;;;;;;;8.75;2.47;;;;;;;10.95;71.12;100342.38;5064120;28;20049;-63
2023/01/13 01:02:36;;;;;;;13.13;3.08;;;;;;;10.95;71.19;100353.13;5063153;28;20056;-63
2023/01/13 01:05:04;;;;;;;11.93;3.00;;;;;;;10.93;71.13;100358.75;5053275;28;20040;-62
2023/01/13 01:07:31;;;;;;;12.93;2.22;;;;;;;10.90;71.17;100347.63;5063341;28;20051;-62
2023/01/13 01:09:59;;;;;;;15.23;3.45;;;;;;;10.92;71.22;100343.66;5057111;28;20049;-64
2023/01/13 01:12:27;;;;;;;12.20;2.38;;;;;;;10.91;71.15;100358.16;5063441;28;20037;-62
2023/01/13 01:14:54;;;;;;;11.52;2.50;;;;;;;10.90;71.25;100361.91;5076568;28;20063;-63
2023/01/13 01:17:22;;;;;;;13.63;2.78;;;;;;;10.90;71.00;100361.91;5071449;28;20041;-62
2023/01/13 01:19:51;;;;;;;16.30;3.00;;;;;;;10.89;71.04;100373.69;5050298;28;20353;-63
2023/01/13 01:22:19;;;;;;;10.35;2.35;;;;;;;10.88;70.94;100365.88;5064959;28;20041;-63
2023/01/13 01:24:47;;;;;;;15.45;3.30;;;;;;;10.85;70.32;100363.66;5071257;28;20051;-63
2023/01/13 01:27:15;;;;;;;14.30;3.28;;;;;;;10.85;70.20;100352.91;5072527;28;20049;-62
2023/01/13 01:29:43;;;;;;;11.50;2.67;;;;;;;10.83;71.01;100355.81;5059699;28;21338;-62
2023/01/13 01:32:10;;;;;;;13.40;3.22;;;;;;;10.84;70.48;100370.91;5065015;28;20051;-62
2023/01/13 01:34:38;;;;;;;20.23;3.40;;;;;;;10.82;70.35;100373.00;5065123;28;20049;-62
2023/01/13 01:37:07;;;;;;;16.48;2.88;;;;;;;10.83;70.06;100371.13;5061265;28;20154;-62
2023/01/13 01:39:35;;;;;;;17.27;3.28;;;;;;;10.82;69.51;100364.13;5066173;28;20045;-63
2023/01/13 01:44:59;;;;;;;13.38;3.15;;;;;;;10.82;70.15;100364.94;5062516;28;20450;-62
2023/01/13 01:47:28;;;;;;;18.02;3.75;;;;;;;10.80;69.97;100367.03;5060324;28;20471;-62
2023/01/13 01:49:58;;;;;;;16.15;3.60;;;;;;;10.79;70.32;100372.66;5066679;28;20118;-62
2023/01/13 01:52:32;;;;;;;15.68;3.45;;;;;;;10.76;69.47;100368.56;5062340;28;20052;-62
2023/01/13 01:55:03;;;;;;;15.07;4.05;;;;;;;10.73;69.15;100366.34;5068481;28;20095;-62
2023/01/13 01:57:36;;;;;;;17.10;3.63;;;;;;;10.72;68.97;100370.91;5058882;28;20794;-63
2023/01/13 02:00:05;;;;;;;20.08;5.50;;;;;;;10.72;68.88;100376.28;5067524;28;20059;-63
2023/01/13 02:02:33;;;;;;;17.08;4.00;;;;;;;10.71;68.39;100373.84;5071605;28;20048;-63
2023/01/13 02:05:01;;;;;;;21.33;3.97;;;;;;;10.69;68.55;100379.44;5059939;28;20049;-63
2023/01/13 02:07:33;;;;;;;19.65;4.10;;;;;;;10.69;69.00;100378.63;5051094;28;20060;-63
2023/01/13 02:10:04;;;;;;;19.38;3.88;;;;;;;10.67;68.76;100368.09;5071559;28;20059;-62
2023/01/13 02:12:33;;;;;;;15.85;3.67;;;;;;;10.67;68.69;100369.97;5061597;28;20045;-63
2023/01/13 02:15:05;;;;;;;21.45;4.43;;;;;;;10.66;68.88;100368.34;5051539;28;20056;-63
2023/01/13 02:18:08;;;;;;;16.20;4.38;;;;;;;10.65;69.19;100364.84;5062334;28;20049;-63
2023/01/13 02:20:52;;;;;;;19.60;4.25;;;;;;;10.65;68.72;100361.34;5050319;28;20052;-63
2023/01/13 02:27:03;;;;;;;25.73;4.50;;;;;;;10.61;68.79;100347.53;5055168;28;20045;-63
2023/01/13 02:32:44;;;;;;;20.85;5.70;;;;;;;10.61;68.97;100366.34;5056219;28;20073;-63
2023/01/13 02:35:19;;;;;;;18.13;3.40;;;;;;;10.59;69.03;100365.78;5057591;28;20068;-62
2023/01/13 02:37:48;;;;;;;18.65;5.38;;;;;;;10.58;69.05;100371.38;5066747;28;20048;-63
2023/01/13 02:40:23;;;;;;;17.77;4.22;;;;;;;10.58;69.20;100382.94;5063855;28;20044;-63
2023/01/13 02:45:51;;;;;;;24.60;5.10;;;;;;;10.58;68.90;100374.06;5055207;28;20063;-62
2023/01/13 02:48:22;;;;;;;21.25;3.88;;;;;;;10.57;69.30;100372.44;5064524;28;20083;-62
2023/01/13 02:50:55;;;;;;;20.70;4.28;;;;;;;10.56;69.22;100362.72;5064055;28;20061;-62
2023/01/13 02:53:30;;;;;;;19.05;3.20;;;;;;;10.55;69.07;100361.09;5066268;28;20147;-62
2023/01/13 02:56:00;;;;;;;15.55;3.35;;;;;;;10.53;69.17;100363.19;5069558;28;20049;-63
2023/01/13 02:58:29;;;;;;;23.17;3.47;;;;;;;10.52;69.38;100351.63;5066129;28;20055;-63
2023/01/13 03:00:58;;;;;;;20.25;3.45;;;;;;;10.52;69.13;100348.13;5069093;28;20059;-62
2023/01/13 03:03:26;;;;;;;15.80;3.90;;;;;;;10.50;69.08;100351.03;5064207;28;20446;-63
2023/01/13 03:06:01;;;;;;;18.02;4.85;;;;;;;10.49;69.35;100345.91;5064302;28;20140;-63
2023/01/13 03:08:46;;;;;;;18.52;4.82;;;;;;;10.50;69.21;100348.38;5060034;28;20054;-64
2023/01/13 03:11:15;;;;;;;15.65;3.65;;;;;;;10.49;69.34;100333.28;5068149;28;20083;-63
2023/01/13 03:14:08;;;;;;;17.02;3.63;;;;;;;10.50;69.80;100340.31;5070444;28;20041;-63
2023/01/13 03:17:01;;;;;;;19.77;4.00;;;;;;;10.49;69.43;100335.97;5056143;28;20049;-63
2023/01/13 03:19:37;;;;;;;12.23;3.75;;;;;;;10.50;69.41;100334.09;5060136;28;20083;-63
2023/01/13 03:22:17;;;;;;;17.25;3.50;;;;;;;10.48;69.28;100342.41;5064555;28;20060;-63
2023/01/13 03:24:53;;;;;;;16.77;3.33;;;;;;;10.48;69.10;100360.38;5062829;28;20447;-62
2023/01/13 03:27:26;;;;;;;15.45;2.95;;;;;;;10.49;68.97;100337.84;5060490;28;20044;-62
2023/01/13 03:29:57;;;;;;;21.20;5.18;;;;;;;10.48;68.81;100331.66;5070898;28;20108;-63
2023/01/13 03:32:30;;;;;;;21.55;4.13;;;;;;;10.48;68.74;100331.66;5067257;28;20104;-63
2023/01/13 03:35:04;;;;;;;15.38;3.47;;;;;;;10.49;68.11;100340.53;5065369;28;20101;-62
2023/01/13 03:37:37;;;;;;;18.58;3.60;;;;;;;10.49;68.24;100348.59;5064708;28;20052;-63
2023/01/13 03:40:10;;;;;;;19.20;3.38;;;;;;;10.47;68.28;100354.19;5063144;28;20109;-62
2023/01/13 03:44:20;;;;;;;15.50;2.80;;;;;;;10.44;68.41;100351.97;5066381;28;20109;-63
2023/01/13 03:45:31;;;;;;;12.73;2.47;;;;;;;10.46;68.39;100357.94;5071602;28;20143;-63
2023/01/13 03:48:05;;;;;;;14.82;2.83;;;;;;;10.46;67.29;100347.19;5069085;28;20076;-62
2023/01/13 03:50:38;;;;;;;14.32;3.08;;;;;;;10.45;67.20;100350.94;5080418;28;20095;-62
2023/01/13 03:53:12;;;;;;;14.75;2.80;;;;;;;10.38;67.54;100334.97;5068483;28;20049;-63
2023/01/13 03:55:43;;;;;;;13.18;2.65;;;;;;;10.42;67.85;100343.34;5061020;28;20051;-63
2023/01/13 03:58:15;;;;;;;13.63;2.85;;;;;;;10.41;68.11;100349.75;5064869;28;20499;-62
2023/01/13 04:00:50;;;;;;;10.15;2.38;;;;;;;10.39;68.04;100350.03;5066000;28;20045;-63
2023/01/13 04:03:22;;;;;;;10.75;2.70;;;;;;;10.39;68.00;100351.88;5066223;28;20080;-63
2023/01/13 04:05:57;;;;;;;9.77;2.67;;;;;;;10.38;68.53;100342.19;5069810;28;20147;-62
2023/01/13 04:08:27;;;;;;;10.77;3.20;;;;;;;10.37;68.47;100343.25;5063825;28;20052;-63
2023/01/13 04:11:02;;;;;;;19.80;3.13;;;;;;;10.37;68.50;100344.06;5063477;28;20146;-62
2023/01/13 04:13:35;;;;;;;12.93;2.38;;;;;;;10.35;69.15;100350.72;5063140;28;20073;-63
2023/01/13 04:16:06;;;;;;;11.45;1.98;;;;;;;10.35;69.14;100354.22;5066917;28;20083;-62
2023/01/13 04:18:38;;;;;;;10.40;2.80;;;;;;;10.36;68.98;100339.75;5068610;28;20109;-63
2023/01/13 04:21:07;;;;;;;14.57;3.00;;;;;;;10.38;69.12;100347.56;5065179;28;20055;-62
2023/01/13 04:23:35;;;;;;;13.32;2.65;;;;;;;10.35;69.02;100362.28;5070921;28;20059;-63
2023/01/13 04:26:03;;;;;;;14.68;2.22;;;;;;;10.36;69.17;100349.66;5060313;28;20057;-62
2023/01/13 04:28:32;;;;;;;12.95;3.03;;;;;;;10.33;69.06;100342.91;5064826;28;20072;-63
2023/01/13 04:31:00;;;;;;;13.43;2.65;;;;;;;10.32;69.43;100333.19;5066842;28;20073;-62
2023/01/13 04:33:28;;;;;;;8.43;2.33;;;;;;;10.35;69.13;100345.34;5063141;28;20045;-63
2023/01/13 04:35:57;;;;;;;10.98;2.70;;;;;;;10.33;69.24;100342.91;5074492;28;20055;-62
2023/01/13 04:38:24;;;;;;;12.95;2.97;;;;;;;10.32;69.26;100340.44;5067351;28;20044;-63
2023/01/13 04:40:52;;;;;;;7.82;2.63;;;;;;;10.30;69.25;100347.91;5064774;28;20112;-62
2023/01/13 04:43:20;;;;;;;10.40;2.22;;;;;;;10.30;69.27;100350.59;5060658;28;20037;-63
2023/01/13 04:45:48;;;;;;;14.60;3.38;;;;;;;10.28;69.60;100350.00;5076790;28;20048;-63
2023/01/13 04:48:15;;;;;;;14.80;3.53;;;;;;;10.28;69.47;100352.69;5062866;28;20112;-62
2023/01/13 04:50:43;;;;;;;7.82;2.67;;;;;;;10.28;69.67;100361.56;5068239;28;20041;-63
2023/01/13 04:53:12;;;;;;;8.85;2.55;;;;;;;10.27;69.37;100368.00;5065014;28;20220;-63
2023/01/13 04:55:40;;;;;;;16.13;3.78;;;;;;;10.28;69.07;100366.94;5053525;28;20045;-63
2023/01/13 04:58:10;;;;;;;13.02;2.35;;;;;;;10.27;69.22;100343.81;5062057;28;20119;-63
2023/01/13 05:00:38;;;;;;;12.07;2.38;;;;;;;10.26;69.38;100352.09;5075757;28;20117;-63
2023/01/13 05:03:06;;;;;;;10.32;3.10;;;;;;;10.26;69.02;100344.88;5063879;28;20037;-63
2023/01/13 05:05:34;;;;;;;10.25;2.40;;;;;;;10.25;68.89;100348.59;5077922;28;20051;-63
2023/01/13 05:08:02;;;;;;;12.65;2.55;;;;;;;10.25;69.05;100351.28;5066204;28;20113;-64
2023/01/13 05:10:31;;;;;;;12.63;2.72;;;;;;;10.25;68.79;100350.47;5065624;28;20377;-63
2023/01/13 05:18:44;;;;;;;14.93;3.38;;;;;;;10.20;69.26;100344.97;5068645;28;20052;-63
2023/01/13 05:26:40;;;;;;;18.55;4.50;;;;;;;10.19;68.80;100337.94;5055767;28;20059;-62
2023/01/13 05:29:08;;;;;;;10.00;2.35;;;;;;;10.19;68.48;100338.75;5067479;28;20049;-62
2023/01/13 05:31:36;;;;;;;9.65;2.08;;;;;;;10.17;68.63;100354.28;5066461;28;20056;-63
2023/01/13 05:34:03;;;;;;;15.05;2.50;;;;;;;10.17;68.56;100350.78;5074788;28;20053;-62
2023/01/13 05:36:31;;;;;;;13.20;3.03;;;;;;;10.17;67.93;100354.28;5068554;28;20052;-63
2023/01/13 05:38:59;;;;;;;18.52;3.10;;;;;;;10.16;68.08;100351.84;5068230;28;20045;-63
2023/01/13 05:44:13;;;;;;;14.25;3.08;;;;;;;10.14;67.37;100353.94;5064241;28;20072;-63
2023/01/13 05:46:41;;;;;;;13.82;2.67;;;;;;;10.14;67.83;100359.31;5058962;28;20382;-62
2023/01/13 05:49:09;;;;;;;9.40;2.25;;;;;;;10.13;67.29;100363.03;5059988;28;20145;-62
2023/01/13 05:51:36;;;;;;;10.35;2.60;;;;;;;10.13;67.21;100358.47;5056813;28;20061;-62
2023/01/13 05:54:04;;;;;;;9.70;2.53;;;;;;;10.12;67.66;100364.91;5063907;28;20037;-62
2023/01/13 05:56:32;;;;;;;12.18;2.70;;;;;;;10.11;67.25;100357.91;5064399;28;20057;-62
2023/01/13 05:59:00;;;;;;;14.20;4.22;;;;;;;10.11;67.29;100369.44;5064119;28;20116;-62
2023/01/13 06:01:29;;;;;;;17.23;3.15;;;;;;;10.10;67.17;100361.63;5053712;28;20054;-62
2023/01/13 06:03:57;;;;;;;19.40;3.13;;;;;;;10.09;65.86;100365.38;5066457;28;20047;-62
2023/01/13 06:06:24;;;;;;;12.25;2.45;;;;;;;10.07;66.74;100359.41;5064033;28;20059;-62
2023/01/13 06:08:52;;;;;;;14.23;2.47;;;;;;;10.07;66.64;100368.28;5066457;28;20048;-63
2023/01/13 06:11:20;;;;;;;9.80;2.40;;;;;;;10.08;66.90;100363.72;5053121;28;20059;-63
2023/01/13 06:13:47;;;;;;;15.52;2.80;;;;;;;10.09;66.90;100373.41;5058763;28;20044;-62
2023/01/13 06:16:15;;;;;;;19.00;3.15;;;;;;;10.09;67.08;100376.91;5059375;28;20154;-62
2023/01/13 06:18:44;;;;;;;10.48;2.72;;;;;;;10.08;67.10;100383.34;5065503;28;20059;-62
2023/01/13 06:21:12;;;;;;;10.80;2.35;;;;;;;10.08;66.75;100385.19;5062220;28;20132;-62
2023/01/13 06:23:40;;;;;;;12.23;2.53;;;;;;;10.08;67.07;100399.44;5066589;28;20063;-63
2023/01/13 06:26:13;;;;;;;14.93;4.13;;;;;;;9.99;66.84;100381.22;5061256;28;20469;-62
2023/01/13 06:28:41;;;;;;;14.45;3.13;;;;;;;10.08;66.77;100398.63;5065234;28;20509;-62
2023/01/13 06:31:10;;;;;;;20.13;4.15;;;;;;;10.06;66.99;100408.78;5062021;28;20056;-63
2023/01/13 06:33:41;;;;;;;12.05;2.83;;;;;;;10.04;66.92;100403.63;5062080;28;20144;-62
2023/01/13 06:36:17;;;;;;;14.48;3.10;;;;;;;10.03;67.10;100411.91;5068803;28;20052;-62
2023/01/13 06:38:49;;;;;;;11.87;3.17;;;;;;;10.03;67.23;100428.03;5067802;28;20132;-61
2023/01/13 06:43:13;;;;;;;13.80;2.78;;;;;;;10.02;67.20;100416.47;5061567;28;20059;-63
2023/01/13 06:44:05;;;;;;;12.55;3.63;;;;;;;10.00;66.84;100437.34;5067477;28;20047;-63
2023/01/13 06:46:34;;;;;;;11.70;2.25;;;;;;;10.00;66.82;100428.47;5061938;28;20075;-63
2023/01/13 06:49:02;;;;;;;17.33;3.22;;;;;;;9.99;66.60;100416.09;5065467;28;20166;-63
2023/01/13 06:51:31;;;;;;;14.20;2.97;;;;;;;9.99;66.82;100418.78;5068464;28;20045;-63
2023/01/13 06:53:59;;;;;;;15.48;2.92;;;;;;;10.00;67.11;100420.44;5059739;28;20567;-62
2023/01/13 06:56:26;;;;;;;10.00;3.15;;;;;;;9.99;66.71;100416.94;5066486;28;20071;-62
2023/01/13 06:58:54;;;;;;;12.68;3.08;;;;;;;9.99;66.49;100419.63;4719307;28;10000269;-62
2023/01/13 07:01:22;;;;;;;9.43;2.58;;;;;;;9.98;66.37;100411.78;5058639;28;20053;-62
2023/01/13 07:03:50;;;;;;;14.90;2.78;;;;;;;9.98;66.35;100417.16;5058208;28;20528;-62
2023/01/13 07:06:18;;;;;;;10.40;2.70;;;;;;;9.98;66.24;100425.22;5064568;28;20056;-63
2023/01/13 07:08:47;;;;;;;17.98;3.60;;;;;;;9.97;66.51;100426.25;5064149;28;20053;-62
2023/01/13 07:11:15;;;;;;;9.65;1.95;;;;;;;9.98;66.80;100430.56;5075632;28;20045;-62
2023/01/13 07:16:27;;;;;;;11.45;2.45;;;;;;;9.97;66.29;100424.38;5064369;28;20569;-62
2023/01/13 07:18:56;;;;;;;14.68;2.53;;;;;;;9.94;66.16;100429.41;5058094;28;20049;-62
2023/01/13 07:21:24;;;;;;;14.85;3.55;;;;;;;9.90;66.30;100442.44;5057486;28;20049;-62
2023/01/13 07:23:53;;;;;;;12.23;2.67;;;;;;;9.91;66.81;100446.78;5061059;28;20051;-62
2023/01/13 07:26:21;;;;;;;11.48;2.92;;;;;;;9.89;65.40;100445.38;5059333;28;20132;-63
2023/01/13 07:28:49;;;;;;;12.60;2.95;;;;;;;9.89;66.00;100443.50;5059023;28;20052;-62
2023/01/13 07:31:19;;;;;;;15.50;3.17;;;;;;;9.84;65.78;100447.91;5058289;28;20108;-62
2023/01/13 07:33:47;;;;;;;13.32;2.63;;;;;;;9.85;66.30;100441.50;5056285;28;20056;-62
2023/01/13 07:36:15;;;;;;;17.15;3.13;;;;;;;9.86;66.62;100443.94;5054389;28;20049;-60
2023/01/13 07:38:44;;;;;;;13.82;2.67;;;;;;;9.89;67.22;100456.09;5060406;28;20163;-62
2023/01/13 07:44:03;;;;;;;15.50;3.28;;;;;;;9.91;66.16;100462.06;5055789;28;20137;-61
2023/01/13 07:46:31;;;;;;;14.82;3.28;;;;;;;9.90;66.20;100463.09;5052195;28;20163;-60
2023/01/13 07:48:59;;;;;;;16.42;4.18;;;;;;;9.90;66.37;100461.25;5053737;28;20728;-61
2023/01/13 07:51:27;;;;;;;15.45;3.13;;;;;;;9.89;66.45;100462.28;5053353;28;20057;-61
2023/01/13 07:53:55;;;;;;;12.35;3.42;;;;;;;9.88;66.60;100463.34;5060909;28;20107;-60
2023/01/13 07:56:24;;;;;;;16.83;3.17;;;;;;;9.88;66.02;100457.97;5053634;28;20048;-61
2023/01/13 07:58:52;;;;;;;13.27;2.90;;;;;;;9.99;66.51;100469.81;5060285;28;20048;-61
2023/01/13 08:01:20;;;;;;;13.48;3.00;;;;;;;10.15;65.72;100449.56;5050201;28;20540;-62
2023/01/13 08:03:48;;;;;;;21.27;2.88;;;;;;;10.32;64.75;100448.69;5053767;28;20054;-61
2023/01/13 08:06:15;;;;;;;14.18;2.67;;;;;;;10.47;64.13;100458.97;5056382;28;20145;-61
2023/01/13 08:08:43;;;;;;;13.38;2.90;;;;;;;10.61;64.08;100465.78;5055005;28;20148;-61
2023/01/13 08:11:11;;;;;;;13.18;2.83;;;;;;;10.76;63.61;100474.22;5051729;28;20250;-61
2023/01/13 08:13:40;;;;;;;12.73;3.33;;;;;;;10.98;63.10;100473.66;5057230;28;20048;-61
2023/01/13 08:16:10;;;;;;;10.57;2.90;;;;;;;11.15;62.88;100476.44;5047742;28;20049;-61
2023/01/13 08:18:38;;;;;;;15.32;2.60;;;;;;;11.17;62.91;100485.94;5042261;28;20052;-61
2023/01/13 08:21:08;;;;;;;11.18;2.90;;;;;;;11.12;63.17;100485.00;5050632;28;20052;-62
2023/01/13 08:23:37;;;;;;;10.95;2.67;;;;;;;10.98;62.55;100476.34;5060236;28;20079;-61
2023/01/13 08:26:06;;;;;;;13.57;2.53;;;;;;;10.87;63.67;100483.34;5051166;28;20277;-62
2023/01/13 08:28:34;;;;;;;14.13;3.22;;;;;;;10.73;63.90;100493.50;5051205;28;20106;-61
2023/01/13 08:31:06;;;;;;;11.98;2.35;;;;;;;10.65;64.18;100491.13;5045976;28;20056;-61
2023/01/13 08:33:34;;;;;;;14.05;3.03;;;;;;;10.56;64.14;100483.66;5048320;28;20067;-63
2023/01/13 08:36:03;;;;;;;14.27;3.15;;;;;;;10.47;64.67;100477.78;5060017;28;20116;-63
2023/01/13 08:38:33;;;;;;;13.30;2.97;;;;;;;10.37;64.55;100494.50;5052392;28;20645;-63
2023/01/13 08:41:01;;;;;;;17.58;4.68;;;;;;;10.30;64.20;100479.53;5062432;28;20118;-63
2023/01/13 08:43:29;;;;;;;19.10;3.65;;;;;;;10.26;64.67;100481.84;5063252;28;20577;-63
2023/01/13 08:45:58;;;;;;;12.90;3.15;;;;;;;10.28;64.87;100481.63;5045981;28;20103;-63
2023/01/13 08:48:29;;;;;;;15.73;3.50;;;;;;;10.23;65.12;100487.66;5059578;28;20056;-61
2023/01/13 08:51:02;;;;;;;16.80;3.45;;;;;;;10.20;65.59;100484.63;5059814;28;20049;-63
2023/01/13 08:53:30;;;;;;;14.70;3.10;;;;;;;10.18;65.09;100494.75;5054348;28;20086;-63
2023/01/13 08:55:58;;;;;;;15.52;3.38;;;;;;;10.18;65.38;100500.13;5057951;28;20052;-63
2023/01/13 08:58:26;;;;;;;14.20;3.05;;;;;;;10.13;65.83;100494.59;5054005;28;20049;-64
2023/01/13 09:00:54;;;;;;;24.85;4.47;;;;;;;10.10;65.13;100493.19;5056220;28;20079;-63
2023/01/13 09:03:22;;;;;;;18.98;3.65;;;;;;;10.06;65.31;100487.47;5047238;28;20065;-63
2023/01/13 09:05:51;;;;;;;26.30;4.18;;;;;;;10.04;64.87;100499.47;5047353;28;20049;-63
2023/01/13 09:08:19;;;;;;;19.83;4.10;;;;;;;10.02;65.00;100510.44;5057395;28;20576;-63
2023/01/13 09:10:47;;;;;;;14.93;3.58;;;;;;;9.99;64.75;100508.19;5055329;28;20056;-63
2023/01/13 09:13:14;;;;;;;19.63;4.22;;;;;;;9.98;64.65;100500.38;5059257;28;20049;-64
2023/01/13 09:15:44;;;;;;;20.45;3.90;;;;;;;9.97;64.64;100488.81;5050359;28;20556;-64
2023/01/13 09:18:13;;;;;;;22.60;4.28;;;;;;;9.97;64.97;100490.69;5058425;28;20044;-63
2023/01/13 09:20:41;;;;;;;23.23;5.30;;;;;;;9.95;64.49;100492.78;5053900;28;20383;-63
2023/01/13 09:23:10;;;;;;;19.23;3.42;;;;;;;10.03;64.61;100495.16;5051980;28;20080;-64
2023/01/13 09:25:38;;;;;;;23.65;5.10;;;;;;;10.00;64.94;100484.88;5052946;28;20459;-63
2023/01/13 09:28:07;;;;;;;19.85;3.78;;;;;;;10.04;65.06;100512.91;5055690;28;20056;-64
2023/01/13 09:30:36;;;;;;;21.95;5.72;;;;;;;9.99;64.58;100513.56;5044399;28;20048;-63
2023/01/13 09:35:50;;;;;;;17.25;4.10;;;;;;;10.00;65.05;100533.19;5056009;28;20102;-63
2023/01/13 09:38:19;;;;;;;18.38;3.40;;;;;;;9.99;65.16;100547.66;5057211;28;20058;-63
2023/01/13 09:40:49;;;;;;;21.92;5.03;;;;;;;9.98;64.96;100554.88;5053620;28;20049;-63
2023/01/13 09:48:59;;;;;;;20.15;5.13;;;;;;;9.96;64.80;100546.25;5057881;28;20056;-61
2023/01/13 09:51:33;;;;;;;24.20;4.00;;;;;;;9.96;64.66;100551.59;5050924;28;20120;-61
2023/01/13 09:54:11;;;;;;;17.60;4.10;;;;;;;9.92;65.09;100545.03;5056340;28;20107;-63
2023/01/13 09:56:38;;;;;;;20.50;5.35;;;;;;;9.92;64.85;100557.66;5052847;28;20040;-62
2023/01/13 09:59:10;;;;;;;16.00;3.42;;;;;;;9.91;65.08;100553.31;5052899;28;20053;-63
2023/01/13 10:01:45;;;;;;;19.75;3.95;;;;;;;9.88;65.25;100556.47;5053353;28;21217;-62
2023/01/13 10:04:15;;;;;;;18.02;4.13;;;;;;;9.88;65.11;100556.47;5049418;28;20080;-63
2023/01/13 10:06:47;;;;;;;25.40;4.38;;;;;;;9.90;64.95;100560.56;5050808;28;20086;-63
2023/01/13 10:09:26;;;;;;;25.02;5.40;;;;;;;9.90;64.29;100557.06;5056433;28;20116;-63
2023/01/13 10:14:52;;;;;;;21.23;4.82;;;;;;;9.89;65.71;100553.56;5057345;28;20045;-63
2023/01/13 10:17:28;;;;;;;26.23;4.45;;;;;;;9.93;65.32;100551.25;5053512;28;20049;-63
2023/01/13 10:20:02;;;;;;;21.57;4.20;;;;;;;9.94;65.64;100566.28;5051278;28;20128;-63
2023/01/13 10:22:44;;;;;;;22.00;4.70;;;;;;;9.92;64.29;100563.03;5048526;28;20164;-63
2023/01/13 10:25:24;;;;;;;20.95;5.22;;;;;;;9.93;64.84;100561.97;5053769;28;20067;-64
2023/01/13 10:27:54;;;;;;;20.05;3.78;;;;;;;9.90;64.93;100573.97;5053867;28;20066;-63
2023/01/13 10:30:29;;;;;;;19.55;5.03;;;;;;;9.93;64.88;100575.41;5047333;28;20057;-63
2023/01/13 10:32:59;;;;;;;31.92;5.90;;;;;;;9.94;65.15;100572.50;5055943;28;20115;-63
2023/01/13 10:35:50;;;;;;;13.85;4.00;;;;;;;9.94;66.06;100577.03;5055601;28;20208;-62
2023/01/13 10:38:20;;;;;;;25.42;4.43;;;;;;;9.94;65.57;100598.50;5055045;28;20059;-63
2023/01/13 10:40:51;;;;;;;18.13;3.70;;;;;;;9.92;65.06;100587.19;5050742;28;20299;-63
2023/01/13 10:43:19;;;;;;;24.85;3.92;;;;;;;9.90;65.42;100589.25;5054748;28;20052;-63
2023/01/13 10:45:55;;;;;;;20.55;4.03;;;;;;;9.89;65.71;100598.34;5051853;28;20049;-63
2023/01/13 10:48:23;;;;;;;22.33;4.72;;;;;;;9.86;65.69;100599.63;5052414;28;20117;-63
2023/01/13 10:50:51;;;;;;;22.20;4.05;;;;;;;9.89;66.51;100606.41;5055181;28;20136;-63
2023/01/13 10:53:23;;;;;;;20.90;5.03;;;;;;;9.88;66.35;100619.00;5051603;28;20474;-64
2023/01/13 10:56:05;;;;;;;23.50;4.30;;;;;;;9.89;66.16;100626.03;5052839;28;20140;-63
2023/01/13 10:58:32;;;;;;;25.13;4.57;;;;;;;9.86;65.90;100610.38;5049746;28;20048;-61
2023/01/13 11:01:02;;;;;;;23.38;4.35;;;;;;;9.85;66.39;100618.63;5049077;28;20120;-63
2023/01/13 11:03:40;;;;;;;19.48;4.82;;;;;;;9.81;66.50;100623.63;5058709;28;20049;-62
2023/01/13 11:06:09;;;;;;;23.52;4.43;;;;;;;9.80;66.32;100622.00;5051625;28;20081;-62
2023/01/13 11:08:43;;;;;;;21.05;5.18;;;;;;;9.81;66.91;100618.25;5055843;28;20045;-63
2023/01/13 11:11:41;;;;;;;18.27;4.20;;;;;;;9.82;66.97;100614.53;5053667;28;20073;-62
2023/01/13 11:14:35;;;;;;;16.65;3.63;;;;;;;9.83;66.77;100615.34;5045367;28;20356;-61
2023/01/13 11:17:11;;;;;;;17.45;3.22;;;;;;;9.82;66.41;100605.66;5056248;28;20494;-62
2023/01/13 11:19:42;;;;;;;17.17;4.30;;;;;;;9.82;66.45;100619.91;5055069;28;20103;-61
2023/01/13 11:22:16;;;;;;;16.02;4.65;;;;;;;9.83;66.17;100612.66;5059063;28;20109;-64
2023/01/13 11:24:49;;;;;;;20.63;5.57;;;;;;;9.83;66.86;100637.66;5056224;28;20040;-63
2023/01/13 11:27:24;;;;;;;21.60;4.05;;;;;;;9.82;66.56;100619.91;5059593;28;20516;-63
2023/01/13 11:30:08;;;;;;;13.43;3.65;;;;;;;9.84;66.42;100627.72;5054924;28;20756;-63
2023/01/13 11:32:40;;;;;;;21.35;4.40;;;;;;;9.84;66.44;100628.56;5056296;28;20102;-65
2023/01/13 11:35:17;;;;;;;17.98;3.92;;;;;;;9.86;66.76;100633.69;5060851;28;20052;-63
2023/01/13 11:37:48;;;;;;;;;;;;;;;9.84;66.54;100628.56;5056045;28;20075;-63
2023/01/13 11:40:21;;;;;;;17.55;3.75;;;;;;;9.84;66.85;100644.66;5056117;28;19921;-65
2023/01/13 11:42:55;;;;;;;25.85;4.93;;;;;;;9.85;66.60;100645.47;5055380;28;20117;-63
2023/01/13 11:45:31;;;;;;;19.05;4.45;;;;;;;9.84;66.84;100641.97;5058334;28;20175;-64
2023/01/13 11:48:01;;;;;;;23.42;5.85;;;;;;;9.85;66.82;100645.47;5054149;28;20049;-64
2023/01/13 11:50:34;;;;;;;23.80;4.10;;;;;;;9.85;66.25;100653.53;5056677;28;20128;-64
2023/01/13 11:53:15;;;;;;;22.63;5.53;;;;;;;9.84;66.40;100641.97;5060174;28;20047;-61
2023/01/13 11:55:54;;;;;;;16.52;3.22;;;;;;;9.85;66.75;100648.16;5056893;28;20108;-62
2023/01/13 11:58:52;;;;;;;10.57;3.38;;;;;;;9.88;66.31;100642.34;5061779;28;20072;-62
2023/01/13 12:01:35;;;;;;;18.80;4.25;;;;;;;9.87;66.41;100651.44;5058968;28;20582;-62
2023/01/13 12:04:19;;;;;;;23.42;3.97;;;;;;;9.91;66.84;100655.34;5062085;28;20048;-62
2023/01/13 12:06:52;;;;;;;18.88;3.97;;;;;;;9.90;66.30;100662.56;5057179;28;20059;-62
2023/01/13 12:09:43;;;;;;;14.65;3.78;;;;;;;9.88;65.96;100666.50;5055615;28;20045;-62
2023/01/13 12:12:26;;;;;;;28.65;4.57;;;;;;;9.89;65.77;100681.56;5057045;28;20121;-61
2023/01/13 12:15:45;;;;;;;22.20;4.40;;;;;;;9.90;66.00;100680.53;5057924;28;20044;-62
2023/01/13 12:18:29;;;;;;;15.57;4.28;;;;;;;9.90;66.21;100693.94;5014778;28;20134;-62
2023/01/13 12:21:08;;;;;;;15.63;4.00;;;;;;;9.89;65.96;100684.25;5014987;28;20049;-62
2023/01/13 12:23:42;;;;;;;13.18;3.47;;;;;;;9.89;65.66;100687.75;5014346;28;20050;-61